sensor_id;sensor_type;location;lat;lon;timestamp;temperature;humidity
54558;DHT22;40452;50.080;20.040;2023-07-31T03:14:13;22.70;64.60
54558;DHT22;40452;50.080;20.040;2023-07-31T03:16:39;22.50;64.70
54558;DHT22;40452;50.080;20.040;2023-07-31T03:19:05;22.40;64.90
54558;DHT22;40452;50.080;20.040;2023-07-31T03:21:30;22.20;65.70
54558;DHT22;40452;50.080;20.040;2023-07-31T03:23:56;22.20;66.50
54558;DHT22;40452;50.080;20.040;2023-07-31T03:26:21;22.30;65.90
54558;DHT22;40452;50.080;20.040;2023-07-31T03:28:47;22.20;65.80
54558;DHT22;40452;50.080;20.040;2023-07-31T03:31:12;22.30;65.80
54558;DHT22;40452;50.080;20.040;2023-07-31T03:33:38;22.20;65.70
54558;DHT22;40452;50.080;20.040;2023-07-31T03:36:04;22.10;65.70
54558;DHT22;40452;50.080;20.040;2023-07-31T03:38:29;21.80;65.50
54558;DHT22;40452;50.080;20.040;2023-07-31T03:40:55;22.20;65.60
54558;DHT22;40452;50.080;20.040;2023-07-31T03:43:21;22.30;65.60
54558;DHT22;40452;50.080;20.040;2023-07-31T03:45:46;22.50;65.00
54558;DHT22;40452;50.080;20.040;2023-07-31T03:48:14;22.70;64.10
54558;DHT22;40452;50.080;20.040;2023-07-31T03:50:39;22.50;64.70
54558;DHT22;40452;50.080;20.040;2023-07-31T03:53:05;22.50;64.90
54558;DHT22;40452;50.080;20.040;2023-07-31T03:55:31;22.30;65.70
54558;DHT22;40452;50.080;20.040;2023-07-31T03:57:56;22.30;65.10
54558;DHT22;40452;50.080;20.040;2023-07-31T04:00:22;22.20;65.40
54558;DHT22;40452;50.080;20.040;2023-07-31T04:02:48;22.20;65.90
54558;DHT22;40452;50.080;20.040;2023-07-31T04:05:13;22.20;65.60
54558;DHT22;40452;50.080;20.040;2023-07-31T04:07:39;22.20;65.50
54558;DHT22;40452;50.080;20.040;2023-07-31T04:10:05;22.20;66.00
54558;DHT22;40452;50.080;20.040;2023-07-31T04:12:30;22.20;65.20
54558;DHT22;40452;50.080;20.040;2023-07-31T04:14:56;22.20;65.40
54558;DHT22;40452;50.080;20.040;2023-07-31T04:17:21;22.30;65.20
54558;DHT22;40452;50.080;20.040;2023-07-31T04:19:47;22.30;64.80
54558;DHT22;40452;50.080;20.040;2023-07-31T04:22:14;22.20;65.20
54558;DHT22;40452;50.080;20.040;2023-07-31T04:24:39;22.20;65.20
54558;DHT22;40452;50.080;20.040;2023-07-31T04:27:05;22.20;64.90
54558;DHT22;40452;50.080;20.040;2023-07-31T04:29:30;21.90;65.30
54558;DHT22;40452;50.080;20.040;2023-07-31T04:31:56;21.90;65.30
54558;DHT22;40452;50.080;20.040;2023-07-31T04:34:21;21.90;65.60
54558;DHT22;40452;50.080;20.040;2023-07-31T04:36:47;22.10;65.80
54558;DHT22;40452;50.080;20.040;2023-07-31T04:39:12;22.40;65.10
54558;DHT22;40452;50.080;20.040;2023-07-31T04:41:38;22.60;64.50
54558;DHT22;40452;50.080;20.040;2023-07-31T04:44:04;22.70;64.10
54558;DHT22;40452;50.080;20.040;2023-07-31T04:46:29;22.70;63.80
54558;DHT22;40452;50.080;20.040;2023-07-31T04:48:55;22.80;63.60
54558;DHT22;40452;50.080;20.040;2023-07-31T04:51:21;22.80;63.40
54558;DHT22;40452;50.080;20.040;2023-07-31T04:53:47;22.90;63.40
54558;DHT22;40452;50.080;20.040;2023-07-31T04:56:12;22.90;63.70
54558;DHT22;40452;50.080;20.040;2023-07-31T04:58:38;23.00;63.30
54558;DHT22;40452;50.080;20.040;2023-07-31T05:01:03;23.00;63.20
54558;DHT22;40452;50.080;20.040;2023-07-31T05:03:29;23.00;63.20
54558;DHT22;40452;50.080;20.040;2023-07-31T05:05:54;23.00;63.10
54558;DHT22;40452;50.080;20.040;2023-07-31T05:08:20;23.00;63.10
54558;DHT22;40452;50.080;20.040;2023-07-31T05:10:45;23.00;63.10
54558;DHT22;40452;50.080;20.040;2023-07-31T05:13:11;23.00;63.00
54558;DHT22;40452;50.080;20.040;2023-07-31T05:15:38;23.00;62.80
54558;DHT22;40452;50.080;20.040;2023-07-31T05:18:03;23.00;62.90
54558;DHT22;40452;50.080;20.040;2023-07-31T05:20:29;23.10;63.10
54558;DHT22;40452;50.080;20.040;2023-07-31T05:22:54;23.20;62.80
54558;DHT22;40452;50.080;20.040;2023-07-31T05:25:20;23.10;62.30
54558;DHT22;40452;50.080;20.040;2023-07-31T05:27:45;22.40;63.40
54558;DHT22;40452;50.080;20.040;2023-07-31T05:30:11;22.00;64.60
54558;DHT22;40452;50.080;20.040;2023-07-31T05:32:36;21.80;65.30
54558;DHT22;40452;50.080;20.040;2023-07-31T05:35:02;21.70;65.70
54558;DHT22;40452;50.080;20.040;2023-07-31T05:37:28;21.60;65.60
54558;DHT22;40452;50.080;20.040;2023-07-31T05:39:53;21.50;66.20
54558;DHT22;40452;50.080;20.040;2023-07-31T05:42:19;21.50;66.20
54558;DHT22;40452;50.080;20.040;2023-07-31T14:49:30;23.60;50.10
54558;DHT22;40452;50.080;20.040;2023-07-31T14:51:55;23.70;49.70
54558;DHT22;40452;50.080;20.040;2023-07-31T14:54:21;23.60;49.50
54558;DHT22;40452;50.080;20.040;2023-07-31T14:56:46;23.60;49.40
54558;DHT22;40452;50.080;20.040;2023-07-31T14:59:12;23.60;49.50
54558;DHT22;40452;50.080;20.040;2023-07-31T15:01:38;23.60;49.70
54558;DHT22;40452;50.080;20.040;2023-07-31T15:04:04;23.70;50.00
54558;DHT22;40452;50.080;20.040;2023-07-31T15:06:30;23.70;49.90
54558;DHT22;40452;50.080;20.040;2023-07-31T15:08:55;23.70;49.90
54558;DHT22;40452;50.080;20.040;2023-07-31T15:11:21;23.70;49.80
54558;DHT22;40452;50.080;20.040;2023-07-31T15:13:46;23.60;50.30
54558;DHT22;40452;50.080;20.040;2023-07-31T15:16:12;23.70;49.60
54558;DHT22;40452;50.080;20.040;2023-07-31T15:18:38;23.70;49.50
54558;DHT22;40452;50.080;20.040;2023-07-31T15:21:04;23.70;50.30
54558;DHT22;40452;50.080;20.040;2023-07-31T15:23:31;23.60;49.60
54558;DHT22;40452;50.080;20.040;2023-07-31T15:25:56;23.70;50.20
54558;DHT22;40452;50.080;20.040;2023-07-31T15:28:22;23.70;49.90
54558;DHT22;40452;50.080;20.040;2023-07-31T15:30:48;23.70;50.10
54558;DHT22;40452;50.080;20.040;2023-07-31T15:33:14;23.70;50.00
54558;DHT22;40452;50.080;20.040;2023-07-31T15:35:40;23.70;49.70
54558;DHT22;40452;50.080;20.040;2023-07-31T15:38:06;23.80;50.20
54558;DHT22;40452;50.080;20.040;2023-07-31T15:40:32;23.70;49.00
54558;DHT22;40452;50.080;20.040;2023-07-31T15:42:57;23.70;48.80
54558;DHT22;40452;50.080;20.040;2023-07-31T15:45:23;23.70;49.10
54558;DHT22;40452;50.080;20.040;2023-07-31T15:47:49;23.70;49.20
54558;DHT22;40452;50.080;20.040;2023-07-31T15:50:14;23.70;49.80
54558;DHT22;40452;50.080;20.040;2023-07-31T15:52:40;23.70;49.20
54558;DHT22;40452;50.080;20.040;2023-07-31T15:55:06;23.70;49.30
54558;DHT22;40452;50.080;20.040;2023-07-31T15:57:31;23.70;48.90
54558;DHT22;40452;50.080;20.040;2023-07-31T15:59:57;23.70;49.00
54558;DHT22;40452;50.080;20.040;2023-07-31T16:02:22;23.70;49.10
54558;DHT22;40452;50.080;20.040;2023-07-31T16:04:48;23.70;49.50
54558;DHT22;40452;50.080;20.040;2023-07-31T16:07:14;23.80;48.80
54558;DHT22;40452;50.080;20.040;2023-07-31T16:09:39;23.80;49.00
54558;DHT22;40452;50.080;20.040;2023-07-31T16:12:05;23.80;49.30
54558;DHT22;40452;50.080;20.040;2023-07-31T16:14:32;23.80;49.20
54558;DHT22;40452;50.080;20.040;2023-07-31T16:16:57;23.80;49.20
54558;DHT22;40452;50.080;20.040;2023-07-31T16:19:23;23.80;49.10
54558;DHT22;40452;50.080;20.040;2023-07-31T16:21:48;23.70;49.60
54558;DHT22;40452;50.080;20.040;2023-07-31T16:24:14;23.70;49.70
54558;DHT22;40452;50.080;20.040;2023-07-31T16:26:39;23.70;49.00
54558;DHT22;40452;50.080;20.040;2023-07-31T16:29:05;23.70;49.20
54558;DHT22;40452;50.080;20.040;2023-07-31T16:31:31;23.70;49.20
54558;DHT22;40452;50.080;20.040;2023-07-31T16:33:56;23.70;49.40
54558;DHT22;40452;50.080;20.040;2023-07-31T16:36:24;23.70;49.50
54558;DHT22;40452;50.080;20.040;2023-07-31T16:38:49;23.70;49.40
54558;DHT22;40452;50.080;20.040;2023-07-31T16:41:16;23.80;49.40
54558;DHT22;40452;50.080;20.040;2023-07-31T16:43:42;23.80;50.00
54558;DHT22;40452;50.080;20.040;2023-07-31T16:46:07;23.80;49.70
54558;DHT22;40452;50.080;20.040;2023-07-31T16:48:33;23.80;50.00
54558;DHT22;40452;50.080;20.040;2023-07-31T16:50:59;23.80;50.50
54558;DHT22;40452;50.080;20.040;2023-07-31T16:53:24;23.80;50.00
54558;DHT22;40452;50.080;20.040;2023-07-31T16:55:50;23.80;49.90
54558;DHT22;40452;50.080;20.040;2023-07-31T16:58:15;23.70;49.60
54558;DHT22;40452;50.080;20.040;2023-07-31T17:00:41;23.80;49.70
54558;DHT22;40452;50.080;20.040;2023-07-31T17:03:07;23.80;49.70
54558;DHT22;40452;50.080;20.040;2023-07-31T17:05:32;23.80;49.60
54558;DHT22;40452;50.080;20.040;2023-07-31T17:07:58;23.70;49.70
54558;DHT22;40452;50.080;20.040;2023-07-31T17:10:24;23.80;50.00
54558;DHT22;40452;50.080;20.040;2023-07-31T17:12:49;23.80;50.00
54558;DHT22;40452;50.080;20.040;2023-07-31T17:15:15;23.80;50.30
54558;DHT22;40452;50.080;20.040;2023-07-31T17:17:41;23.80;50.10
54558;DHT22;40452;50.080;20.040;2023-07-31T17:20:07;23.80;50.10
54558;DHT22;40452;50.080;20.040;2023-07-31T17:22:32;23.80;50.00
54558;DHT22;40452;50.080;20.040;2023-07-31T17:24:58;23.80;49.90
54558;DHT22;40452;50.080;20.040;2023-07-31T17:27:24;23.80;50.30
54558;DHT22;40452;50.080;20.040;2023-07-31T17:29:50;23.80;50.30
54558;DHT22;40452;50.080;20.040;2023-07-31T17:32:16;23.80;50.30
54558;DHT22;40452;50.080;20.040;2023-07-31T17:34:41;23.80;50.00
54558;DHT22;40452;50.080;20.040;2023-07-31T17:37:08;23.70;50.30
54558;DHT22;40452;50.080;20.040;2023-07-31T17:39:34;23.70;50.30
54558;DHT22;40452;50.080;20.040;2023-07-31T17:41:59;23.70;50.00
54558;DHT22;40452;50.080;20.040;2023-07-31T17:44:25;23.70;50.40
54558;DHT22;40452;50.080;20.040;2023-07-31T17:46:51;23.70;49.10
54558;DHT22;40452;50.080;20.040;2023-07-31T17:49:17;23.70;50.20
54558;DHT22;40452;50.080;20.040;2023-07-31T17:51:42;23.70;50.00
54558;DHT22;40452;50.080;20.040;2023-07-31T17:54:08;23.70;49.50
54558;DHT22;40452;50.080;20.040;2023-07-31T17:56:34;23.70;50.20
54558;DHT22;40452;50.080;20.040;2023-07-31T17:59:04;23.70;50.40
54558;DHT22;40452;50.080;20.040;2023-07-31T18:01:29;23.70;50.70
54558;DHT22;40452;50.080;20.040;2023-07-31T18:03:55;23.70;50.10
54558;DHT22;40452;50.080;20.040;2023-07-31T18:06:20;23.70;49.70
54558;DHT22;40452;50.080;20.040;2023-07-31T18:08:46;23.70;50.50
54558;DHT22;40452;50.080;20.040;2023-07-31T18:11:11;23.70;50.20
54558;DHT22;40452;50.080;20.040;2023-07-31T18:13:38;23.50;50.30
54558;DHT22;40452;50.080;20.040;2023-07-31T18:16:04;23.70;50.30
54558;DHT22;40452;50.080;20.040;2023-07-31T18:18:30;23.60;50.30
54558;DHT22;40452;50.080;20.040;2023-07-31T18:20:55;23.60;50.70
54558;DHT22;40452;50.080;20.040;2023-07-31T18:23:21;23.70;50.90
54558;DHT22;40452;50.080;20.040;2023-07-31T18:25:47;23.60;51.30
54558;DHT22;40452;50.080;20.040;2023-07-31T18:28:13;23.60;51.70
54558;DHT22;40452;50.080;20.040;2023-07-31T18:30:38;23.60;51.90
54558;DHT22;40452;50.080;20.040;2023-07-31T18:33:04;23.60;52.00
54558;DHT22;40452;50.080;20.040;2023-07-31T18:35:30;23.60;51.90
54558;DHT22;40452;50.080;20.040;2023-07-31T18:37:56;23.60;52.00
54558;DHT22;40452;50.080;20.040;2023-07-31T18:40:21;23.60;52.20
54558;DHT22;40452;50.080;20.040;2023-07-31T18:42:47;23.60;52.30
54558;DHT22;40452;50.080;20.040;2023-07-31T18:45:12;23.60;52.30
54558;DHT22;40452;50.080;20.040;2023-07-31T18:47:38;23.60;52.20
54558;DHT22;40452;50.080;20.040;2023-07-31T18:50:04;23.60;52.50
54558;DHT22;40452;50.080;20.040;2023-07-31T18:52:31;23.60;52.80
54558;DHT22;40452;50.080;20.040;2023-07-31T18:54:57;23.60;52.70
54558;DHT22;40452;50.080;20.040;2023-07-31T18:57:22;23.50;52.90
54558;DHT22;40452;50.080;20.040;2023-07-31T18:59:48;23.50;53.00
54558;DHT22;40452;50.080;20.040;2023-07-31T19:02:13;23.40;53.20
54558;DHT22;40452;50.080;20.040;2023-07-31T19:04:39;23.40;53.50
54558;DHT22;40452;50.080;20.040;2023-07-31T19:07:05;23.50;52.80
54558;DHT22;40452;50.080;20.040;2023-07-31T19:09:33;23.50;53.20
54558;DHT22;40452;50.080;20.040;2023-07-31T19:12:00;23.50;53.60
54558;DHT22;40452;50.080;20.040;2023-07-31T19:14:26;23.50;53.70
54558;DHT22;40452;50.080;20.040;2023-07-31T19:16:52;23.50;53.60
54558;DHT22;40452;50.080;20.040;2023-07-31T19:19:20;23.40;53.90
54558;DHT22;40452;50.080;20.040;2023-07-31T19:21:45;23.30;54.70
54558;DHT22;40452;50.080;20.040;2023-07-31T19:24:11;23.20;54.40
54558;DHT22;40452;50.080;20.040;2023-07-31T19:26:37;23.10;55.60
54558;DHT22;40452;50.080;20.040;2023-07-31T19:29:02;23.00;55.00
54558;DHT22;40452;50.080;20.040;2023-07-31T19:31:28;23.10;55.00
54558;DHT22;40452;50.080;20.040;2023-07-31T19:33:53;23.20;55.00
54558;DHT22;40452;50.080;20.040;2023-07-31T19:36:19;23.20;54.90
54558;DHT22;40452;50.080;20.040;2023-07-31T19:38:45;23.30;54.70
54558;DHT22;40452;50.080;20.040;2023-07-31T19:41:10;23.20;55.10
54558;DHT22;40452;50.080;20.040;2023-07-31T19:43:36;23.10;55.20
54558;DHT22;40452;50.080;20.040;2023-07-31T19:46:02;23.10;55.30
54558;DHT22;40452;50.080;20.040;2023-07-31T19:48:27;23.10;55.70
54558;DHT22;40452;50.080;20.040;2023-07-31T19:50:53;23.10;55.80
54558;DHT22;40452;50.080;20.040;2023-07-31T19:53:18;23.10;55.70
54558;DHT22;40452;50.080;20.040;2023-07-31T19:55:44;23.00;55.80
54558;DHT22;40452;50.080;20.040;2023-07-31T19:58:10;23.00;56.00
54558;DHT22;40452;50.080;20.040;2023-07-31T20:00:36;23.20;56.20
54558;DHT22;40452;50.080;20.040;2023-07-31T20:03:01;23.10;55.90
54558;DHT22;40452;50.080;20.040;2023-07-31T20:05:27;23.20;55.50
54558;DHT22;40452;50.080;20.040;2023-07-31T20:07:53;23.30;55.40
54558;DHT22;40452;50.080;20.040;2023-07-31T20:10:18;23.30;55.40
54558;DHT22;40452;50.080;20.040;2023-07-31T20:12:44;23.40;55.50
54558;DHT22;40452;50.080;20.040;2023-07-31T20:15:20;23.40;55.10
54558;DHT22;40452;50.080;20.040;2023-07-31T20:17:47;23.50;56.10
54558;DHT22;40452;50.080;20.040;2023-07-31T20:20:13;23.50;55.00
54558;DHT22;40452;50.080;20.040;2023-07-31T20:22:38;23.50;55.10
54558;DHT22;40452;50.080;20.040;2023-07-31T20:25:04;23.50;55.10
54558;DHT22;40452;50.080;20.040;2023-07-31T20:27:30;23.50;55.90
54558;DHT22;40452;50.080;20.040;2023-07-31T20:29:56;23.50;55.60
